sensor_id;sensor_type;location;lat;lon;timestamp;temperature;humidity
10443;DHT22;5269;51.146;16.986;2022-11-20T00:03:26;-3.90;1.00
10443;DHT22;5269;51.146;16.986;2022-11-20T00:05:59;-4.10;1.00
10443;DHT22;5269;51.146;16.986;2022-11-20T00:08:26;-4.10;99.90
10443;DHT22;5269;51.146;16.986;2022-11-20T00:10:53;-4.10;99.90
10443;DHT22;5269;51.146;16.986;2022-11-20T00:13:20;-4.20;15.60
10443;DHT22;5269;51.146;16.986;2022-11-20T00:15:47;-4.20;99.90
10443;DHT22;5269;51.146;16.986;2022-11-20T00:18:14;-4.30;1.00
10443;DHT22;5269;51.146;16.986;2022-11-20T00:20:41;-4.30;1.00
10443;DHT22;5269;51.146;16.986;2022-11-20T00:23:09;-4.40;99.90
10443;DHT22;5269;51.146;16.986;2022-11-20T00:25:36;-4.40;1.00
10443;DHT22;5269;51.146;16.986;2022-11-20T00:28:03;-4.40;99.90
10443;DHT22;5269;51.146;16.986;2022-11-20T00:30:30;-4.40;99.90
10443;DHT22;5269;51.146;16.986;2022-11-20T00:32:59;-4.40;1.00
10443;DHT22;5269;51.146;16.986;2022-11-20T00:35:26;-4.50;99.90
10443;DHT22;5269;51.146;16.986;2022-11-20T00:37:53;-4.40;1.00
10443;DHT22;5269;51.146;16.986;2022-11-20T00:40:21;-4.50;99.90
10443;DHT22;5269;51.146;16.986;2022-11-20T00:42:48;-4.60;1.00
10443;DHT22;5269;51.146;16.986;2022-11-20T00:45:15;-4.60;99.90
10443;DHT22;5269;51.146;16.986;2022-11-20T00:47:42;-4.60;99.90
10443;DHT22;5269;51.146;16.986;2022-11-20T00:50:09;-4.60;30.20
10443;DHT22;5269;51.146;16.986;2022-11-20T00:52:36;-4.70;99.90
10443;DHT22;5269;51.146;16.986;2022-11-20T00:55:03;-4.70;1.00
10443;DHT22;5269;51.146;16.986;2022-11-20T00:57:32;-4.70;1.00
10443;DHT22;5269;51.146;16.986;2022-11-20T00:59:58;-4.70;99.90
10443;DHT22;5269;51.146;16.986;2022-11-20T01:02:25;-4.70;1.00
10443;DHT22;5269;51.146;16.986;2022-11-20T01:04:52;-4.60;1.00
10443;DHT22;5269;51.146;16.986;2022-11-20T01:07:19;-4.60;99.90
10443;DHT22;5269;51.146;16.986;2022-11-20T01:09:46;-4.50;99.90
10443;DHT22;5269;51.146;16.986;2022-11-20T01:12:13;-4.50;1.00
10443;DHT22;5269;51.146;16.986;2022-11-20T01:14:41;-4.50;1.00
10443;DHT22;5269;51.146;16.986;2022-11-20T01:17:08;-4.50;99.90
10443;DHT22;5269;51.146;16.986;2022-11-20T01:19:35;-4.60;99.90
10443;DHT22;5269;51.146;16.986;2022-11-20T01:22:02;-4.50;99.90
10443;DHT22;5269;51.146;16.986;2022-11-20T01:24:29;-4.50;1.00
10443;DHT22;5269;51.146;16.986;2022-11-20T01:26:56;-4.50;1.00
10443;DHT22;5269;51.146;16.986;2022-11-20T01:29:24;-4.50;1.00
10443;DHT22;5269;51.146;16.986;2022-11-20T01:31:52;-4.50;99.90
10443;DHT22;5269;51.146;16.986;2022-11-20T01:34:20;-4.60;1.00
10443;DHT22;5269;51.146;16.986;2022-11-20T01:36:48;-4.60;1.00
10443;DHT22;5269;51.146;16.986;2022-11-20T01:39:17;-4.60;99.90
10443;DHT22;5269;51.146;16.986;2022-11-20T01:41:45;-4.70;99.90
10443;DHT22;5269;51.146;16.986;2022-11-20T01:44:51;-4.80;99.90
10443;DHT22;5269;51.146;16.986;2022-11-20T01:47:25;-4.80;1.00
10443;DHT22;5269;51.146;16.986;2022-11-20T01:49:58;-4.90;99.90
10443;DHT22;5269;51.146;16.986;2022-11-20T01:52:29;-4.90;99.90
10443;DHT22;5269;51.146;16.986;2022-11-20T01:55:00;-4.80;1.00
10443;DHT22;5269;51.146;16.986;2022-11-20T01:57:29;-4.90;90.60
10443;DHT22;5269;51.146;16.986;2022-11-20T02:00:01;-4.90;99.90
10443;DHT22;5269;51.146;16.986;2022-11-20T02:02:31;-4.90;1.00
10443;DHT22;5269;51.146;16.986;2022-11-20T02:05:02;-4.90;1.00
10443;DHT22;5269;51.146;16.986;2022-11-20T02:07:31;-5.00;1.00
10443;DHT22;5269;51.146;16.986;2022-11-20T02:10:00;-5.00;1.00
10443;DHT22;5269;51.146;16.986;2022-11-20T02:12:27;-5.00;1.00
10443;DHT22;5269;51.146;16.986;2022-11-20T02:15:11;-5.00;40.90
10443;DHT22;5269;51.146;16.986;2022-11-20T02:17:40;-5.00;1.00
10443;DHT22;5269;51.146;16.986;2022-11-20T02:20:08;-5.00;1.00
10443;DHT22;5269;51.146;16.986;2022-11-20T02:22:40;-5.10;8.30
10443;DHT22;5269;51.146;16.986;2022-11-20T02:25:11;-5.10;95.50
10443;DHT22;5269;51.146;16.986;2022-11-20T02:27:38;-5.10;99.90
10443;DHT22;5269;51.146;16.986;2022-11-20T02:30:06;-5.10;99.90
10443;DHT22;5269;51.146;16.986;2022-11-20T02:32:35;-5.20;99.90
10443;DHT22;5269;51.146;16.986;2022-11-20T02:35:07;-5.20;99.90
10443;DHT22;5269;51.146;16.986;2022-11-20T02:37:37;-5.20;1.00
10443;DHT22;5269;51.146;16.986;2022-11-20T02:40:06;-5.20;1.00
10443;DHT22;5269;51.146;16.986;2022-11-20T02:42:35;-5.20;1.00
10443;DHT22;5269;51.146;16.986;2022-11-20T02:45:02;-5.20;1.00
10443;DHT22;5269;51.146;16.986;2022-11-20T02:47:30;-5.10;1.00
10443;DHT22;5269;51.146;16.986;2022-11-20T02:49:57;-5.20;1.00
10443;DHT22;5269;51.146;16.986;2022-11-20T02:52:24;-5.20;1.00
10443;DHT22;5269;51.146;16.986;2022-11-20T02:54:51;-5.20;1.00
10443;DHT22;5269;51.146;16.986;2022-11-20T02:57:18;-5.30;1.00
10443;DHT22;5269;51.146;16.986;2022-11-20T02:59:47;-5.30;1.00
10443;DHT22;5269;51.146;16.986;2022-11-20T03:02:14;-5.30;1.00
10443;DHT22;5269;51.146;16.986;2022-11-20T03:04:41;-5.30;1.00
10443;DHT22;5269;51.146;16.986;2022-11-20T03:07:08;-5.20;1.00
10443;DHT22;5269;51.146;16.986;2022-11-20T03:09:35;-5.20;1.00
10443;DHT22;5269;51.146;16.986;2022-11-20T03:12:02;-5.20;1.00
10443;DHT22;5269;51.146;16.986;2022-11-20T03:14:29;-5.20;1.00
10443;DHT22;5269;51.146;16.986;2022-11-20T03:16:57;-5.20;1.00
10443;DHT22;5269;51.146;16.986;2022-11-20T03:19:24;-5.20;1.00
10443;DHT22;5269;51.146;16.986;2022-11-20T03:21:51;-5.20;1.00
10443;DHT22;5269;51.146;16.986;2022-11-20T03:24:18;-5.30;1.00
10443;DHT22;5269;51.146;16.986;2022-11-20T03:26:45;-5.30;1.00
10443;DHT22;5269;51.146;16.986;2022-11-20T03:29:12;-5.40;1.00
10443;DHT22;5269;51.146;16.986;2022-11-20T03:31:40;-5.40;1.00
10443;DHT22;5269;51.146;16.986;2022-11-20T03:34:10;-5.40;1.00
10443;DHT22;5269;51.146;16.986;2022-11-20T03:36:37;-5.40;1.00
10443;DHT22;5269;51.146;16.986;2022-11-20T03:39:04;-5.50;1.00
10443;DHT22;5269;51.146;16.986;2022-11-20T03:41:36;-5.60;1.00
10443;DHT22;5269;51.146;16.986;2022-11-20T03:44:05;-5.60;1.00
10443;DHT22;5269;51.146;16.986;2022-11-20T03:46:32;-5.60;1.00
10443;DHT22;5269;51.146;16.986;2022-11-20T03:49:00;-5.60;1.00
10443;DHT22;5269;51.146;16.986;2022-11-20T03:51:30;-5.50;1.00
10443;DHT22;5269;51.146;16.986;2022-11-20T03:53:59;-5.60;1.00
10443;DHT22;5269;51.146;16.986;2022-11-20T03:56:28;-5.50;1.00
10443;DHT22;5269;51.146;16.986;2022-11-20T03:58:55;-5.60;1.00
10443;DHT22;5269;51.146;16.986;2022-11-20T04:01:25;-5.60;1.00
10443;DHT22;5269;51.146;16.986;2022-11-20T04:03:54;-5.60;1.00
10443;DHT22;5269;51.146;16.986;2022-11-20T04:06:23;-5.20;1.00
10443;DHT22;5269;51.146;16.986;2022-11-20T04:08:53;-5.60;1.00
10443;DHT22;5269;51.146;16.986;2022-11-20T04:11:21;-5.70;1.00
10443;DHT22;5269;51.146;16.986;2022-11-20T04:13:49;-5.80;1.00
10443;DHT22;5269;51.146;16.986;2022-11-20T04:16:17;-5.90;1.00
10443;DHT22;5269;51.146;16.986;2022-11-20T04:18:44;-5.80;1.00
10443;DHT22;5269;51.146;16.986;2022-11-20T04:21:12;-5.80;1.00
10443;DHT22;5269;51.146;16.986;2022-11-20T04:23:39;-5.80;1.00
10443;DHT22;5269;51.146;16.986;2022-11-20T04:26:08;-5.90;1.00
10443;DHT22;5269;51.146;16.986;2022-11-20T04:28:36;-5.90;1.00
10443;DHT22;5269;51.146;16.986;2022-11-20T04:31:05;-5.90;1.00
10443;DHT22;5269;51.146;16.986;2022-11-20T04:33:32;-6.00;1.00
10443;DHT22;5269;51.146;16.986;2022-11-20T04:36:04;-6.00;1.00
10443;DHT22;5269;51.146;16.986;2022-11-20T04:38:31;-6.10;1.00
10443;DHT22;5269;51.146;16.986;2022-11-20T04:40:59;-6.10;1.00
10443;DHT22;5269;51.146;16.986;2022-11-20T04:43:28;-6.10;1.00
10443;DHT22;5269;51.146;16.986;2022-11-20T04:45:56;-6.10;1.00
10443;DHT22;5269;51.146;16.986;2022-11-20T04:48:23;-6.10;1.00
10443;DHT22;5269;51.146;16.986;2022-11-20T04:50:51;-6.10;1.00
10443;DHT22;5269;51.146;16.986;2022-11-20T04:53:20;-6.10;1.00
10443;DHT22;5269;51.146;16.986;2022-11-20T04:55:47;-6.10;1.00
10443;DHT22;5269;51.146;16.986;2022-11-20T04:58:15;-6.10;1.00
10443;DHT22;5269;51.146;16.986;2022-11-20T05:00:43;-6.00;1.00
10443;DHT22;5269;51.146;16.986;2022-11-20T05:03:10;-6.10;1.00
10443;DHT22;5269;51.146;16.986;2022-11-20T05:05:37;-6.10;1.00
10443;DHT22;5269;51.146;16.986;2022-11-20T05:08:04;-6.10;1.10
10443;DHT22;5269;51.146;16.986;2022-11-20T05:10:31;-6.10;10.70
10443;DHT22;5269;51.146;16.986;2022-11-20T05:12:58;-6.10;22.60
10443;DHT22;5269;51.146;16.986;2022-11-20T05:15:25;-6.10;20.40
10443;DHT22;5269;51.146;16.986;2022-11-20T05:17:53;-6.10;26.20
10443;DHT22;5269;51.146;16.986;2022-11-20T05:20:20;-6.10;31.20
10443;DHT22;5269;51.146;16.986;2022-11-20T05:22:47;-6.10;36.40
10443;DHT22;5269;51.146;16.986;2022-11-20T05:25:14;-6.20;32.60
10443;DHT22;5269;51.146;16.986;2022-11-20T05:27:41;-6.20;48.00
10443;DHT22;5269;51.146;16.986;2022-11-20T05:30:09;-6.10;53.80
10443;DHT22;5269;51.146;16.986;2022-11-20T05:32:36;-6.10;54.50
10443;DHT22;5269;51.146;16.986;2022-11-20T05:35:07;-6.20;56.20
10443;DHT22;5269;51.146;16.986;2022-11-20T05:37:33;-6.20;55.00
10443;DHT22;5269;51.146;16.986;2022-11-20T05:40:01;-6.20;53.70
10443;DHT22;5269;51.146;16.986;2022-11-20T05:42:30;-6.20;59.70
10443;DHT22;5269;51.146;16.986;2022-11-20T05:44:58;-6.20;57.20
10443;DHT22;5269;51.146;16.986;2022-11-20T05:47:25;-6.30;56.40
10443;DHT22;5269;51.146;16.986;2022-11-20T05:49:52;-6.30;53.20
10443;DHT22;5269;51.146;16.986;2022-11-20T05:52:20;-6.30;62.60
10443;DHT22;5269;51.146;16.986;2022-11-20T05:54:47;-6.30;59.80
10443;DHT22;5269;51.146;16.986;2022-11-20T05:57:15;-6.40;61.70
10443;DHT22;5269;51.146;16.986;2022-11-20T05:59:42;-6.40;62.90
10443;DHT22;5269;51.146;16.986;2022-11-20T06:02:09;-6.40;67.10
10443;DHT22;5269;51.146;16.986;2022-11-20T06:04:35;-6.40;62.30
10443;DHT22;5269;51.146;16.986;2022-11-20T06:07:04;-6.40;67.00
10443;DHT22;5269;51.146;16.986;2022-11-20T06:09:33;-6.40;65.30
10443;DHT22;5269;51.146;16.986;2022-11-20T06:12:00;-6.50;58.70
10443;DHT22;5269;51.146;16.986;2022-11-20T06:14:27;-6.50;54.40
10443;DHT22;5269;51.146;16.986;2022-11-20T06:16:57;-6.50;53.90
10443;DHT22;5269;51.146;16.986;2022-11-20T06:19:24;-6.50;49.30
10443;DHT22;5269;51.146;16.986;2022-11-20T06:21:51;-6.60;44.00
10443;DHT22;5269;51.146;16.986;2022-11-20T06:24:18;-6.60;41.10
10443;DHT22;5269;51.146;16.986;2022-11-20T06:26:46;-6.60;40.50
10443;DHT22;5269;51.146;16.986;2022-11-20T06:29:16;-6.60;41.30
10443;DHT22;5269;51.146;16.986;2022-11-20T06:31:42;-6.60;44.60
10443;DHT22;5269;51.146;16.986;2022-11-20T06:34:11;-6.60;48.80
10443;DHT22;5269;51.146;16.986;2022-11-20T06:36:38;-6.50;53.80
10443;DHT22;5269;51.146;16.986;2022-11-20T06:39:07;-6.50;58.50
10443;DHT22;5269;51.146;16.986;2022-11-20T06:41:45;-6.40;61.00
10443;DHT22;5269;51.146;16.986;2022-11-20T06:47:04;-6.50;68.80
10443;DHT22;5269;51.146;16.986;2022-11-20T06:49:51;-6.40;79.40
10443;DHT22;5269;51.146;16.986;2022-11-20T06:52:18;-6.40;89.10
10443;DHT22;5269;51.146;16.986;2022-11-20T06:54:45;-6.30;92.40
10443;DHT22;5269;51.146;16.986;2022-11-20T06:57:12;-6.30;96.90
10443;DHT22;5269;51.146;16.986;2022-11-20T06:59:40;-6.20;99.90
10443;DHT22;5269;51.146;16.986;2022-11-20T07:02:17;-6.20;99.90
10443;DHT22;5269;51.146;16.986;2022-11-20T07:05:01;-6.10;99.90
10443;DHT22;5269;51.146;16.986;2022-11-20T07:07:30;-6.10;99.90
10443;DHT22;5269;51.146;16.986;2022-11-20T07:10:03;-6.00;99.90
10443;DHT22;5269;51.146;16.986;2022-11-20T07:12:39;-6.00;99.90
10443;DHT22;5269;51.146;16.986;2022-11-20T07:15:21;-5.90;99.90
10443;DHT22;5269;51.146;16.986;2022-11-20T07:17:52;-5.90;99.90
10443;DHT22;5269;51.146;16.986;2022-11-20T07:20:19;-5.80;99.90
10443;DHT22;5269;51.146;16.986;2022-11-20T07:22:58;-5.80;99.90
10443;DHT22;5269;51.146;16.986;2022-11-20T07:25:33;-5.70;99.90
10443;DHT22;5269;51.146;16.986;2022-11-20T07:28:04;-5.70;99.90
10443;DHT22;5269;51.146;16.986;2022-11-20T07:30:41;-5.60;99.90
10443;DHT22;5269;51.146;16.986;2022-11-20T07:33:22;-5.60;99.90
10443;DHT22;5269;51.146;16.986;2022-11-20T07:36:07;-5.50;99.90
10443;DHT22;5269;51.146;16.986;2022-11-20T07:38:58;-5.40;99.90
10443;DHT22;5269;51.146;16.986;2022-11-20T07:41:42;-5.30;99.90
10443;DHT22;5269;51.146;16.986;2022-11-20T07:44:09;-5.20;99.90
10443;DHT22;5269;51.146;16.986;2022-11-20T07:46:36;-5.10;99.90
10443;DHT22;5269;51.146;16.986;2022-11-20T07:49:11;-5.00;99.90
10443;DHT22;5269;51.146;16.986;2022-11-20T07:51:38;-5.00;99.90
10443;DHT22;5269;51.146;16.986;2022-11-20T07:54:10;-4.70;99.90
10443;DHT22;5269;51.146;16.986;2022-11-20T07:56:44;-4.60;99.90
10443;DHT22;5269;51.146;16.986;2022-11-20T07:59:23;-4.60;99.90
10443;DHT22;5269;51.146;16.986;2022-11-20T08:01:51;-4.50;99.90
10443;DHT22;5269;51.146;16.986;2022-11-20T08:04:21;-4.40;99.90
10443;DHT22;5269;51.146;16.986;2022-11-20T08:06:54;-4.30;99.90
10443;DHT22;5269;51.146;16.986;2022-11-20T08:09:29;-4.20;99.90
10443;DHT22;5269;51.146;16.986;2022-11-20T08:11:58;-4.10;99.90
10443;DHT22;5269;51.146;16.986;2022-11-20T08:14:42;-3.80;99.90
10443;DHT22;5269;51.146;16.986;2022-11-20T08:17:09;-3.80;99.90
10443;DHT22;5269;51.146;16.986;2022-11-20T08:19:37;-3.70;99.90
10443;DHT22;5269;51.146;16.986;2022-11-20T08:22:04;-3.40;99.90
10443;DHT22;5269;51.146;16.986;2022-11-20T08:24:31;-3.30;99.90
10443;DHT22;5269;51.146;16.986;2022-11-20T08:26:58;-3.30;99.90
10443;DHT22;5269;51.146;16.986;2022-11-20T08:29:26;-3.00;99.90
10443;DHT22;5269;51.146;16.986;2022-11-20T08:31:53;-3.00;94.90
10443;DHT22;5269;51.146;16.986;2022-11-20T08:34:20;-2.80;45.70
10443;DHT22;5269;51.146;16.986;2022-11-20T08:36:50;-2.80;1.00
10443;DHT22;5269;51.146;16.986;2022-11-20T08:39:16;-2.60;1.00
10443;DHT22;5269;51.146;16.986;2022-11-20T08:41:43;-2.50;1.00
10443;DHT22;5269;51.146;16.986;2022-11-20T08:44:10;-2.40;1.00
10443;DHT22;5269;51.146;16.986;2022-11-20T08:46:39;-2.20;1.00
10443;DHT22;5269;51.146;16.986;2022-11-20T08:49:08;-2.30;1.00
10443;DHT22;5269;51.146;16.986;2022-11-20T08:51:35;-2.20;1.00
10443;DHT22;5269;51.146;16.986;2022-11-20T08:54:04;-2.10;1.00
10443;DHT22;5269;51.146;16.986;2022-11-20T08:59:07;-2.10;99.90
10443;DHT22;5269;51.146;16.986;2022-11-20T09:01:34;-1.90;99.90
10443;DHT22;5269;51.146;16.986;2022-11-20T09:04:01;-1.80;99.90
10443;DHT22;5269;51.146;16.986;2022-11-20T09:06:30;-1.80;99.90
10443;DHT22;5269;51.146;16.986;2022-11-20T09:08:57;-1.80;99.90
10443;DHT22;5269;51.146;16.986;2022-11-20T09:11:27;-1.70;10.50
10443;DHT22;5269;51.146;16.986;2022-11-20T09:14:00;-1.70;1.00
10443;DHT22;5269;51.146;16.986;2022-11-20T09:16:32;-1.70;9.50
10443;DHT22;5269;51.146;16.986;2022-11-20T09:18:59;-1.50;47.10
10443;DHT22;5269;51.146;16.986;2022-11-20T09:21:28;-1.30;17.00
10443;DHT22;5269;51.146;16.986;2022-11-20T09:23:59;-1.10;1.00
10443;DHT22;5269;51.146;16.986;2022-11-20T09:26:28;-1.10;1.00
10443;DHT22;5269;51.146;16.986;2022-11-20T09:28:55;-1.00;1.00
10443;DHT22;5269;51.146;16.986;2022-11-20T09:31:33;-1.00;99.90
10443;DHT22;5269;51.146;16.986;2022-11-20T09:37:24;-1.00;99.90
10443;DHT22;5269;51.146;16.986;2022-11-20T09:40:00;-1.00;99.90
10443;DHT22;5269;51.146;16.986;2022-11-20T09:42:35;-0.90;1.00
10443;DHT22;5269;51.146;16.986;2022-11-20T09:45:17;-0.70;1.00
10443;DHT22;5269;51.146;16.986;2022-11-20T09:50:58;-0.50;99.90
10443;DHT22;5269;51.146;16.986;2022-11-20T09:53:32;-0.50;1.00
10443;DHT22;5269;51.146;16.986;2022-11-20T09:56:04;-0.40;1.00
10443;DHT22;5269;51.146;16.986;2022-11-20T09:58:42;-0.40;1.00
10443;DHT22;5269;51.146;16.986;2022-11-20T10:01:14;-0.40;1.00
10443;DHT22;5269;51.146;16.986;2022-11-20T10:06:26;-0.30;1.00
10443;DHT22;5269;51.146;16.986;2022-11-20T10:09:31;-0.20;1.00
10443;DHT22;5269;51.146;16.986;2022-11-20T10:15:21;-0.30;1.00
10443;DHT22;5269;51.146;16.986;2022-11-20T10:21:22;-0.10;1.00
10443;DHT22;5269;51.146;16.986;2022-11-20T10:37:30;0.40;99.90
10443;DHT22;5269;51.146;16.986;2022-11-20T10:40:22;0.40;99.90
10443;DHT22;5269;51.146;16.986;2022-11-20T10:42:52;0.40;99.90
10443;DHT22;5269;51.146;16.986;2022-11-20T10:45:44;0.40;99.90
10443;DHT22;5269;51.146;16.986;2022-11-20T10:51:35;0.70;99.90
10443;DHT22;5269;51.146;16.986;2022-11-20T10:57:07;0.50;99.90
10443;DHT22;5269;51.146;16.986;2022-11-20T11:00:01;0.60;99.90
10443;DHT22;5269;51.146;16.986;2022-11-20T11:02:52;0.50;99.90
10443;DHT22;5269;51.146;16.986;2022-11-20T11:05:29;0.40;99.90
10443;DHT22;5269;51.146;16.986;2022-11-20T11:11:20;0.60;99.90
10443;DHT22;5269;51.146;16.986;2022-11-20T11:21:50;1.00;1.00
10443;DHT22;5269;51.146;16.986;2022-11-20T11:24:21;1.00;1.00
10443;DHT22;5269;51.146;16.986;2022-11-20T11:26:58;1.00;1.00
10443;DHT22;5269;51.146;16.986;2022-11-20T11:29:30;0.90;1.00
10443;DHT22;5269;51.146;16.986;2022-11-20T11:32:08;1.10;99.90
10443;DHT22;5269;51.146;16.986;2022-11-20T11:43:21;1.10;99.90
10443;DHT22;5269;51.146;16.986;2022-11-20T11:46:30;1.10;99.90
10443;DHT22;5269;51.146;16.986;2022-11-20T11:49:08;1.10;99.90
10443;DHT22;5269;51.146;16.986;2022-11-20T11:51:46;1.20;99.90
10443;DHT22;5269;51.146;16.986;2022-11-20T11:54:19;1.20;99.90
10443;DHT22;5269;51.146;16.986;2022-11-20T11:56:48;1.10;99.90
10443;DHT22;5269;51.146;16.986;2022-11-20T11:59:23;1.10;99.90
10443;DHT22;5269;51.146;16.986;2022-11-20T12:01:54;1.20;99.90
10443;DHT22;5269;51.146;16.986;2022-11-20T12:05:08;1.40;99.90
10443;DHT22;5269;51.146;16.986;2022-11-20T12:10:55;1.30;99.90
10443;DHT22;5269;51.146;16.986;2022-11-20T12:13:44;1.40;99.90
10443;DHT22;5269;51.146;16.986;2022-11-20T12:16:23;1.40;99.90
10443;DHT22;5269;51.146;16.986;2022-11-20T12:19:10;1.30;99.90
10443;DHT22;5269;51.146;16.986;2022-11-20T12:21:46;1.50;99.90
10443;DHT22;5269;51.146;16.986;2022-11-20T12:29:54;1.40;1.00
10443;DHT22;5269;51.146;16.986;2022-11-20T13:24:26;1.50;1.00
10443;DHT22;5269;51.146;16.986;2022-11-20T13:27:19;1.40;1.00
10443;DHT22;5269;51.146;16.986;2022-11-20T13:29:58;1.40;1.00
10443;DHT22;5269;51.146;16.986;2022-11-20T13:32:26;1.40;1.00
10443;DHT22;5269;51.146;16.986;2022-11-20T13:34:59;1.50;1.00
10443;DHT22;5269;51.146;16.986;2022-11-20T13:37:30;1.50;1.00
10443;DHT22;5269;51.146;16.986;2022-11-20T13:43:46;1.50;1.00
10443;DHT22;5269;51.146;16.986;2022-11-20T14:01:31;1.40;99.90
10443;DHT22;5269;51.146;16.986;2022-11-20T14:15:23;1.20;21.00
10443;DHT22;5269;51.146;16.986;2022-11-20T14:18:25;1.00;1.00
10443;DHT22;5269;51.146;16.986;2022-11-20T14:21:07;0.90;1.00
10443;DHT22;5269;51.146;16.986;2022-11-20T14:23:41;1.00;59.60
10443;DHT22;5269;51.146;16.986;2022-11-20T14:26:12;1.00;98.60
10443;DHT22;5269;51.146;16.986;2022-11-20T14:29:01;0.90;99.90
10443;DHT22;5269;51.146;16.986;2022-11-20T14:31:34;0.90;99.90
10443;DHT22;5269;51.146;16.986;2022-11-20T14:37:39;0.80;99.90
10443;DHT22;5269;51.146;16.986;2022-11-20T14:40:29;0.60;99.90
10443;DHT22;5269;51.146;16.986;2022-11-20T14:43:19;0.60;99.90
10443;DHT22;5269;51.146;16.986;2022-11-20T14:46:00;0.60;1.00
10443;DHT22;5269;51.146;16.986;2022-11-20T14:48:33;0.50;1.00
10443;DHT22;5269;51.146;16.986;2022-11-20T14:51:31;0.30;1.00
10443;DHT22;5269;51.146;16.986;2022-11-20T14:54:13;0.40;1.00
10443;DHT22;5269;51.146;16.986;2022-11-20T15:07:03;0.00;1.00
10443;DHT22;5269;51.146;16.986;2022-11-20T15:09:32;0.00;99.90
10443;DHT22;5269;51.146;16.986;2022-11-20T15:12:15;-0.20;99.90
10443;DHT22;5269;51.146;16.986;2022-11-20T15:15:08;-0.30;99.90
10443;DHT22;5269;51.146;16.986;2022-11-20T15:21:03;-0.20;99.90
10443;DHT22;5269;51.146;16.986;2022-11-20T15:33:30;-0.60;1.00
10443;DHT22;5269;51.146;16.986;2022-11-20T15:39:34;-0.80;1.00
10443;DHT22;5269;51.146;16.986;2022-11-20T15:45:24;-1.00;99.90
10443;DHT22;5269;51.146;16.986;2022-11-20T15:57:32;-1.20;99.90
10443;DHT22;5269;51.146;16.986;2022-11-20T16:00:14;-1.20;1.00
10443;DHT22;5269;51.146;16.986;2022-11-20T16:03:34;-1.30;1.00
10443;DHT22;5269;51.146;16.986;2022-11-20T16:06:22;-1.50;1.00
10443;DHT22;5269;51.146;16.986;2022-11-20T16:09:13;-1.50;99.90
10443;DHT22;5269;51.146;16.986;2022-11-20T16:15:20;-1.60;1.00
10443;DHT22;5269;51.146;16.986;2022-11-20T16:21:36;-1.70;99.90
10443;DHT22;5269;51.146;16.986;2022-11-20T16:27:44;-1.80;99.90
10443;DHT22;5269;51.146;16.986;2022-11-20T16:30:23;-1.80;1.00
10443;DHT22;5269;51.146;16.986;2022-11-20T16:36:31;-1.80;1.00
10443;DHT22;5269;51.146;16.986;2022-11-20T16:39:40;-1.70;70.90
10443;DHT22;5269;51.146;16.986;2022-11-20T16:45:34;-1.40;99.60
10443;DHT22;5269;51.146;16.986;2022-11-20T16:48:22;-1.20;1.00
10443;DHT22;5269;51.146;16.986;2022-11-20T16:51:14;-1.20;1.00
10443;DHT22;5269;51.146;16.986;2022-11-20T16:53:47;-1.20;1.00
10443;DHT22;5269;51.146;16.986;2022-11-20T16:56:29;-1.20;1.00
10443;DHT22;5269;51.146;16.986;2022-11-20T16:59:04;-1.10;1.00
10443;DHT22;5269;51.146;16.986;2022-11-20T17:01:41;-1.00;99.90
10443;DHT22;5269;51.146;16.986;2022-11-20T17:04:11;-1.10;99.90
10443;DHT22;5269;51.146;16.986;2022-11-20T17:06:43;-1.10;99.90
10443;DHT22;5269;51.146;16.986;2022-11-20T17:09:30;-1.20;1.00
10443;DHT22;5269;51.146;16.986;2022-11-20T17:11:58;-1.20;99.90
10443;DHT22;5269;51.146;16.986;2022-11-20T17:14:30;-1.30;1.00
10443;DHT22;5269;51.146;16.986;2022-11-20T17:17:02;-1.40;1.00
10443;DHT22;5269;51.146;16.986;2022-11-20T17:19:30;-1.40;1.00
10443;DHT22;5269;51.146;16.986;2022-11-20T17:22:03;-1.40;99.90
10443;DHT22;5269;51.146;16.986;2022-11-20T17:24:32;-1.40;1.00
10443;DHT22;5269;51.146;16.986;2022-11-20T17:27:00;-1.30;1.00
10443;DHT22;5269;51.146;16.986;2022-11-20T17:29:33;-1.30;1.00
10443;DHT22;5269;51.146;16.986;2022-11-20T17:32:17;-1.30;1.00
10443;DHT22;5269;51.146;16.986;2022-11-20T17:34:53;-1.30;1.00
10443;DHT22;5269;51.146;16.986;2022-11-20T17:37:24;-1.40;1.00
10443;DHT22;5269;51.146;16.986;2022-11-20T17:43:00;-1.60;1.00
10443;DHT22;5269;51.146;16.986;2022-11-20T17:45:34;-1.70;1.00
10443;DHT22;5269;51.146;16.986;2022-11-20T17:48:08;-1.70;99.90
10443;DHT22;5269;51.146;16.986;2022-11-20T17:50:41;-1.70;1.00
10443;DHT22;5269;51.146;16.986;2022-11-20T17:53:08;-1.70;1.00
10443;DHT22;5269;51.146;16.986;2022-11-20T17:55:40;-1.60;1.00
10443;DHT22;5269;51.146;16.986;2022-11-20T17:58:31;-1.60;1.00
10443;DHT22;5269;51.146;16.986;2022-11-20T18:01:11;-1.60;99.90
10443;DHT22;5269;51.146;16.986;2022-11-20T18:03:40;-1.60;69.20
10443;DHT22;5269;51.146;16.986;2022-11-20T18:06:10;-1.60;1.00
10443;DHT22;5269;51.146;16.986;2022-11-20T18:08:39;-1.60;1.00
10443;DHT22;5269;51.146;16.986;2022-11-20T18:11:23;-1.70;99.90
10443;DHT22;5269;51.146;16.986;2022-11-20T18:14:04;-1.80;1.00
10443;DHT22;5269;51.146;16.986;2022-11-20T18:16:50;-1.70;1.00
10443;DHT22;5269;51.146;16.986;2022-11-20T18:19:25;-1.80;1.00
10443;DHT22;5269;51.146;16.986;2022-11-20T18:22:24;-1.80;1.00
10443;DHT22;5269;51.146;16.986;2022-11-20T18:25:11;-1.90;1.00
10443;DHT22;5269;51.146;16.986;2022-11-20T18:27:38;-2.10;99.90
10443;DHT22;5269;51.146;16.986;2022-11-20T18:30:08;-2.30;1.00
10443;DHT22;5269;51.146;16.986;2022-11-20T18:32:35;-2.50;1.00
10443;DHT22;5269;51.146;16.986;2022-11-20T18:35:02;-2.50;99.90
10443;DHT22;5269;51.146;16.986;2022-11-20T18:37:30;-2.50;1.00
10443;DHT22;5269;51.146;16.986;2022-11-20T18:39:57;-2.60;1.00
10443;DHT22;5269;51.146;16.986;2022-11-20T18:42:24;-2.70;99.90
10443;DHT22;5269;51.146;16.986;2022-11-20T18:47:51;-2.70;99.90
10443;DHT22;5269;51.146;16.986;2022-11-20T18:50:21;-2.80;99.90
10443;DHT22;5269;51.146;16.986;2022-11-20T18:52:51;-2.80;1.00
10443;DHT22;5269;51.146;16.986;2022-11-20T18:55:24;-2.90;1.00
10443;DHT22;5269;51.146;16.986;2022-11-20T18:58:01;-2.90;1.00
10443;DHT22;5269;51.146;16.986;2022-11-20T19:00:42;-2.80;99.90
10443;DHT22;5269;51.146;16.986;2022-11-20T19:12:19;-2.40;1.00
10443;DHT22;5269;51.146;16.986;2022-11-20T19:14:46;-2.40;1.00
10443;DHT22;5269;51.146;16.986;2022-11-20T19:17:14;-2.50;1.00
10443;DHT22;5269;51.146;16.986;2022-11-20T19:19:43;-2.60;99.90
10443;DHT22;5269;51.146;16.986;2022-11-20T19:22:34;-2.70;1.00
10443;DHT22;5269;51.146;16.986;2022-11-20T19:28:14;-2.70;84.90
10443;DHT22;5269;51.146;16.986;2022-11-20T19:30:41;-2.70;99.90
10443;DHT22;5269;51.146;16.986;2022-11-20T19:33:12;-2.70;1.00
10443;DHT22;5269;51.146;16.986;2022-11-20T19:35:42;-2.60;19.80
10443;DHT22;5269;51.146;16.986;2022-11-20T19:38:23;-2.50;99.90
10443;DHT22;5269;51.146;16.986;2022-11-20T19:40:50;-2.50;99.90
10443;DHT22;5269;51.146;16.986;2022-11-20T19:43:17;-2.50;9.00
10443;DHT22;5269;51.146;16.986;2022-11-20T19:45:48;-2.60;1.00
10443;DHT22;5269;51.146;16.986;2022-11-20T19:48:21;-2.80;1.00
10443;DHT22;5269;51.146;16.986;2022-11-20T19:50:51;-2.80;1.00
10443;DHT22;5269;51.146;16.986;2022-11-20T19:53:18;-2.90;1.00
10443;DHT22;5269;51.146;16.986;2022-11-20T19:55:54;-2.80;40.10
10443;DHT22;5269;51.146;16.986;2022-11-20T19:58:22;-2.80;99.90
10443;DHT22;5269;51.146;16.986;2022-11-20T20:00:49;-2.80;99.90
10443;DHT22;5269;51.146;16.986;2022-11-20T20:03:16;-2.90;99.90
10443;DHT22;5269;51.146;16.986;2022-11-20T20:06:01;-3.00;99.90